Ana Sayfa
METAR-TAF:

METAR-TAF

Havaalanları :

Hatay Havalimanı

Antakya, Türkiye

Enlem: 36-21-46N, Boylam: 36-16-56E, yükseklik: 1950 m

Güncel hava durumu gözlemi

Rapor saat 11:50 UTC de 52 dakika önce yapıldı.
Rüzgar güneydan 3 kt
Sıcaklık 22°C
Nem 29%
Basınç 1025 hPa
Görüş mesafesi 10 km veya daha fazla
10000 ft yükseklikte parçalı bulutlu

METAR: LTDA 241150Z 17003KT 9999 SCT100 22/03 Q1025 NOSIG

Saat: 15:42 (12:42 UTC)

Tahmin

Rapor saat 10:40 UTC de 2 saat ve 2 dakika önce yapıldı.
Ayın 24'si saat 12 UTC'den ayın 24'si saat 21 UTC'ye kadar geçerli Tahmin
Rüzgar değişken yönden 2 kt
Görüş mesafesi 10 km veya daha fazla
10000 ft yükseklikte parçalı bulutlu

TAF: LTDA 241040Z 2412/2421 VRB02KT 9999 SCT100

4.000'den fazla havaalanı için hava durumu gözlemleri ve tahminleri (METAR ve TAF raporları).

Kullanılabilir istasyonlar harita üzerinde sarı ve kırmızı noktalarla gösterilir.

İstasyonun adını görmek için fareyi noktanın üzerinde gezdirin.

Sonrasında hava gözlem ve tahminlerini görmek için tıklayın.

Haritayı değiştirmek için: yaklaştırmak için siyah artı işaretli yeşil düğmeye ve uzaklaştırmak için de eksi işaretli düğmeye hızla tıklayın; bitişik haritalar için yeşil okları kullanın.


METAR-TAF: